Time;durP1;ratioP1;P1;durP2;ratioP2;P2;SDS_P1;SDS_P2;PMS_P1;PMS_P2;Temp;Humidity;BMP_temperature;BMP_pressure;BME280_temperature;BME280_humidity;BME280_pressure;Samples;Min_cycle;Max_cycle;Signal;HPM_P1;HPM_P2
2021/06/04 00:01:27;;;;;;;7.80;4.10;;;17.30;99.90;;;18.19;100.00;98583.44;4996546;28;21121;-87
2021/06/04 00:03:57;;;;;;;7.20;4.43;;;17.30;99.90;;;18.24;100.00;98585.41;4998841;28;20561;-87
2021/06/04 00:06:26;;;;;;;9.40;4.63;;;17.40;99.90;;;18.22;100.00;98583.00;5000562;28;20502;-88
2021/06/04 00:08:56;;;;;;;7.53;4.00;;;17.30;99.90;;;18.25;100.00;98582.56;5001084;28;20886;-87
2021/06/04 00:11:29;;;;;;;6.43;3.90;;;17.30;99.90;;;18.23;100.00;98579.31;4996844;28;20478;-87
2021/06/04 00:14:01;;;;;;;7.33;4.10;;;17.30;99.90;;;18.08;100.00;98577.03;5000990;28;20467;-87
2021/06/04 00:16:35;;;;;;;6.30;4.00;;;17.20;99.90;;;17.92;100.00;98584.75;5006751;28;20466;-87
2021/06/04 00:19:14;;;;;;;8.17;3.57;;;17.00;99.90;;;17.89;100.00;98578.09;5002976;28;20480;-87
2021/06/04 00:21:48;;;;;;;10.33;4.30;;;16.90;99.90;;;17.90;100.00;98576.25;4996158;28;20972;-87
2021/06/04 00:24:18;;;;;;;6.30;3.90;;;17.00;99.90;;;17.95;100.00;98571.91;5000862;28;20495;-87
2021/06/04 00:26:49;;;;;;;9.97;4.67;;;17.00;99.90;;;17.93;100.00;98565.22;5025749;28;20462;-87
2021/06/04 00:29:18;;;;;;;9.60;4.00;;;17.00;99.90;;;17.94;100.00;98569.50;5010447;28;20462;-87
2021/06/04 00:31:51;;;;;;;5.83;3.90;;;17.00;99.90;;;17.92;100.00;98572.34;5006149;28;20518;-87
2021/06/04 00:34:20;;;;;;;4.20;3.80;;;17.00;99.90;;;17.72;100.00;98576.22;5009488;28;20456;-87
2021/06/04 00:36:49;;;;;;;4.80;4.20;;;16.70;99.90;;;17.57;100.00;98569.47;4998395;28;20471;-86
2021/06/04 00:39:21;;;;;;;11.90;4.27;;;16.60;99.90;;;17.66;100.00;98579.75;4998186;28;20532;-87
2021/06/04 00:41:54;;;;;;;19.13;4.47;;;16.70;99.90;;;17.55;100.00;98576.78;5004861;28;20450;-87
2021/06/04 00:44:24;;;;;;;5.60;3.93;;;16.60;99.90;;;17.51;100.00;98575.59;5003409;28;20502;-86
2021/06/04 00:46:55;;;;;;;12.20;4.33;;;16.50;99.90;;;17.42;100.00;98576.88;5004196;28;20552;-87
2021/06/04 00:49:25;;;;;;;6.87;4.47;;;16.40;99.90;;;17.32;100.00;98579.22;5000947;28;20878;-88
2021/06/04 00:51:59;;;;;;;13.17;4.47;;;16.30;99.90;;;17.44;100.00;98569.56;4998970;28;20495;-87
2021/06/04 00:54:30;;;;;;;7.70;4.27;;;16.50;99.90;;;17.45;100.00;98575.66;5005411;28;20562;-87
2021/06/04 00:57:00;;;;;;;6.80;3.60;;;16.60;99.90;;;17.52;100.00;98577.22;5010224;28;20465;-87
2021/06/04 00:59:35;;;;;;;7.37;3.70;;;16.70;99.90;;;17.53;100.00;98576.19;5001936;28;20472;-87
2021/06/04 01:02:08;;;;;;;8.90;4.10;;;16.60;99.90;;;17.21;100.00;98577.31;5003047;28;20543;-86
2021/06/04 01:04:38;;;;;;;7.27;4.20;;;16.30;99.90;;;17.23;100.00;98567.31;4995210;28;20495;-87
2021/06/04 01:07:14;;;;;;;11.50;3.57;;;16.30;99.90;;;17.32;100.00;98576.56;5000225;28;21010;-87
2021/06/04 01:10:05;;;;;;;8.03;4.30;;;16.40;99.90;;;17.28;100.00;98570.13;4997688;28;20479;-87
2021/06/04 01:12:54;;;;;;;9.37;3.87;;;16.30;99.90;;;17.30;100.00;98565.41;5002254;28;20984;-87
2021/06/04 01:15:43;;;;;;;4.10;3.70;;;16.40;99.90;;;17.19;100.00;98570.59;5003054;28;20562;-87
2021/06/04 01:18:26;;;;;;;8.60;4.27;;;16.30;99.90;;;17.25;100.00;98570.53;5009809;28;20485;-86
2021/06/04 01:21:01;;;;;;;5.20;3.43;;;16.40;99.90;;;17.31;100.00;98574.16;4998992;28;20836;-88
2021/06/04 01:23:56;;;;;;;4.97;3.63;;;16.40;99.90;;;17.30;100.00;98573.34;5005884;28;20491;-87
2021/06/04 01:26:33;;;;;;;4.80;3.87;;;16.40;99.90;;;17.33;100.00;98572.09;5004384;28;20475;-87
2021/06/04 01:29:09;;;;;;;9.10;4.20;;;16.40;99.90;;;17.19;100.00;98574.03;4999762;28;20901;-87
2021/06/04 01:31:42;;;;;;;12.90;4.27;;;16.30;99.90;;;16.88;100.00;98568.78;4998995;28;20956;-87
2021/06/04 01:34:16;;;;;;;9.53;3.53;;;15.90;99.90;;;16.92;100.00;98573.44;4999046;28;20447;-86
2021/06/04 01:36:49;;;;;;;5.40;4.07;;;16.00;99.90;;;16.98;100.00;98575.22;4996729;28;20522;-87
2021/06/04 01:39:22;;;;;;;6.73;4.30;;;16.00;99.90;;;16.92;100.00;98570.81;5001224;28;20467;-87
2021/06/04 01:41:54;;;;;;;4.50;3.53;;;15.90;99.90;;;16.89;100.00;98568.59;5002196;28;20467;-86
2021/06/04 01:44:30;;;;;;;7.90;4.40;;;15.90;99.90;;;16.93;100.00;98561.06;4996073;28;20914;-87
2021/06/04 01:47:05;;;;;;;9.00;4.17;;;16.00;99.90;;;16.73;100.00;98565.66;5001805;28;20486;-87
2021/06/04 01:49:40;;;;;;;9.53;4.50;;;15.70;99.90;;;16.74;100.00;98560.16;5006322;28;20473;-86
2021/06/04 01:52:16;;;;;;;6.90;3.60;;;15.80;99.90;;;16.64;100.00;98561.66;5001310;28;20516;-87
2021/06/04 01:54:52;;;;;;;10.93;3.43;;;15.70;99.90;;;16.70;100.00;98555.50;5001892;28;20482;-87
2021/06/04 01:57:28;;;;;;;5.87;3.80;;;15.70;99.90;;;16.70;100.00;98563.44;5009070;28;20463;-87
2021/06/04 01:59:59;;;;;;;5.27;3.90;;;15.80;99.90;;;16.76;100.00;98549.38;4997777;28;20458;-87
2021/06/04 02:02:35;;;;;;;7.87;4.17;;;15.80;99.90;;;16.78;100.00;98549.97;5005310;28;20459;-87
2021/06/04 02:05:13;;;;;;;5.30;3.10;;;15.90;99.90;;;16.87;100.00;98556.63;5003741;28;20557;-87
2021/06/04 02:07:41;;;;;;;5.73;3.43;;;16.00;99.90;;;16.88;100.00;98558.22;5005762;28;20536;-87
2021/06/04 02:10:17;;;;;;;6.50;3.97;;;16.00;99.90;;;16.82;100.00;98559.09;5003118;28;20459;-86
2021/06/04 02:12:50;;;;;;;5.50;3.83;;;15.90;99.90;;;16.80;100.00;98556.66;5008131;28;20470;-87
2021/06/04 02:15:27;;;;;;;9.37;3.90;;;15.90;99.90;;;16.76;100.00;98559.97;4999846;28;20558;-87
2021/06/04 02:18:02;;;;;;;9.80;4.33;;;15.80;99.90;;;16.68;100.00;98557.56;5007451;28;21025;-86
2021/06/04 02:20:38;;;;;;;4.50;3.70;;;15.80;99.90;;;16.73;100.00;98558.53;5002560;28;20502;-87
2021/06/04 02:23:17;;;;;;;7.90;4.10;;;15.90;99.90;;;16.78;100.00;98557.91;5010547;28;20573;-87
2021/06/04 02:26:00;;;;;;;4.60;3.40;;;15.90;99.90;;;16.74;100.00;98559.34;4999053;28;20468;-86
2021/06/04 02:28:38;;;;;;;3.57;3.03;;;15.90;99.90;;;16.70;100.00;98563.44;4995075;28;20461;-87
2021/06/04 02:31:18;;;;;;;12.23;3.93;;;15.80;99.90;;;16.50;100.00;98561.69;5004277;28;21057;-87
2021/06/04 02:33:52;;;;;;;6.80;3.60;;;15.60;99.90;;;16.50;100.00;98561.69;5004900;28;20458;-87
2021/06/04 02:36:27;;;;;;;11.63;4.43;;;15.50;99.90;;;16.50;100.00;98558.25;5001713;28;20463;-86
2021/06/04 02:39:04;;;;;;;7.77;3.87;;;15.50;99.90;;;16.35;100.00;98573.53;5005252;28;20470;-87
2021/06/04 02:41:39;;;;;;;9.33;4.50;;;15.40;99.90;;;16.32;100.00;98574.78;4997674;28;20468;-87
2021/06/04 02:44:13;;;;;;;9.67;4.43;;;15.40;99.90;;;16.23;100.00;98578.69;5005487;28;20497;-87
2021/06/04 02:46:46;;;;;;;25.93;4.20;;;15.30;99.90;;;16.31;100.00;98582.94;4993781;28;20621;-87
2021/06/04 02:49:19;;;;;;;10.03;3.93;;;15.30;99.90;;;16.28;100.00;98586.78;5002907;28;20549;-87
2021/06/04 02:51:57;;;;;;;6.00;4.17;;;15.30;99.90;;;16.32;100.00;98585.34;4998789;28;20463;-87
2021/06/04 02:54:33;;;;;;;4.37;3.60;;;15.40;99.90;;;16.40;100.00;98587.75;5002063;28;20544;-86
2021/06/04 02:57:07;;;;;;;8.00;3.47;;;15.40;99.90;;;16.47;100.00;98599.09;5008504;28;20507;-86
2021/06/04 02:59:41;;;;;;;3.50;3.20;;;15.50;99.90;;;16.44;100.00;98591.59;5003847;28;20455;-86
2021/06/04 03:02:14;;;;;;;3.43;3.13;;;15.50;99.90;;;16.43;100.00;98597.06;5007065;28;20465;-86
2021/06/04 03:04:49;;;;;;;17.53;3.80;;;15.50;99.90;;;16.44;100.00;98596.06;4997524;28;20491;-86
2021/06/04 03:07:26;;;;;;;10.33;4.10;;;15.50;99.90;;;16.36;100.00;98589.19;5004128;28;20960;-87
2021/06/04 03:09:57;;;;;;;14.80;3.93;;;15.40;99.90;;;16.23;100.00;98591.06;5006852;28;20463;-87
2021/06/04 03:12:30;;;;;;;7.30;3.53;;;15.30;99.90;;;16.05;100.00;98599.66;4992556;28;20961;-86
2021/06/04 03:15:02;;;;;;;5.80;3.90;;;15.10;99.90;;;15.95;100.00;98594.00;5003557;28;20463;-86
2021/06/04 03:17:34;;;;;;;8.43;4.00;;;15.00;99.90;;;16.00;100.00;98602.13;5003513;28;20483;-87
2021/06/04 03:20:07;;;;;;;3.90;3.50;;;15.00;99.90;;;16.18;100.00;98604.06;5004261;28;20471;-86
2021/06/04 03:22:40;;;;;;;5.07;3.70;;;15.20;99.90;;;16.20;100.00;98607.34;5001984;28;20479;-86
2021/06/04 03:25:16;;;;;;;5.57;3.70;;;15.20;99.90;;;16.19;100.00;98606.53;4993924;28;20502;-87
2021/06/04 03:27:45;;;;;;;10.83;3.70;;;15.20;99.90;;;16.20;100.00;98602.88;5002485;28;21021;-87
2021/06/04 03:30:19;;;;;;;6.60;4.17;;;15.30;99.90;;;16.18;100.00;98607.53;4986083;28;20479;-86
2021/06/04 03:32:47;;;;;;;6.40;5.00;;;15.30;99.90;;;16.17;100.00;98605.94;5003530;28;20494;-87
2021/06/04 03:35:16;;;;;;;4.93;3.53;;;15.30;99.90;;;16.15;100.00;98605.31;5003199;28;20465;-86
2021/06/04 03:37:45;;;;;;;6.47;4.20;;;15.20;99.90;;;16.22;100.00;98602.66;5001441;28;20997;-87
2021/06/04 03:40:21;;;;;;;5.60;4.40;;;15.30;99.90;;;16.27;100.00;98606.28;5006529;28;20511;-86
2021/06/04 03:42:51;;;;;;;8.00;4.60;;;15.40;99.90;;;16.33;100.00;98608.09;5000664;28;20904;-87
2021/06/04 03:45:29;;;;;;;14.37;4.60;;;15.40;99.90;;;16.38;100.00;98607.47;4999987;28;20999;-86
2021/06/04 03:47:57;;;;;;;16.83;4.47;;;15.40;99.90;;;16.40;100.00;98603.59;4998517;28;20520;-86
2021/06/04 03:50:26;;;;;;;9.00;4.70;;;15.50;99.90;;;16.40;100.00;98598.31;4996598;28;20472;-87
2021/06/04 03:52:54;;;;;;;8.60;3.53;;;15.50;99.90;;;16.31;100.00;98599.59;4999477;28;20482;-87
2021/06/04 03:55:26;;;;;;;4.40;4.00;;;15.40;99.90;;;16.36;100.00;98604.22;4999901;28;20549;-86
2021/06/04 03:57:55;;;;;;;8.50;3.70;;;15.40;99.90;;;16.42;100.00;98606.00;4994616;28;20468;-86
2021/06/04 04:00:35;;;;;;;5.43;4.33;;;15.50;99.90;;;16.47;100.00;98604.38;4997253;28;20486;-87
2021/06/04 04:03:05;;;;;;;15.00;5.27;;;15.60;99.90;;;16.48;100.00;98610.47;5001615;28;21067;-86
2021/06/04 04:05:38;;;;;;;13.67;5.50;;;15.70;99.90;;;16.52;100.00;98599.25;5007767;28;20499;-86
2021/06/04 04:08:08;;;;;;;6.80;4.80;;;15.80;99.90;;;16.50;100.00;98603.94;5008679;28;20464;-87
2021/06/04 04:10:36;;;;;;;18.10;5.93;;;15.70;99.90;;;16.51;100.00;98599.47;5002812;28;20467;-87
2021/06/04 04:13:05;;;;;;;150.87;73.77;;;15.70;99.90;;;16.53;100.00;98600.88;4998869;28;20479;-88
2021/06/04 04:15:34;;;;;;;16.60;7.97;;;15.70;99.90;;;16.52;100.00;98601.88;4998933;28;20468;-87
2021/06/04 04:18:03;;;;;;;5.77;4.63;;;15.70;99.90;;;16.56;100.00;98597.03;4998218;28;21153;-87
2021/06/04 04:20:37;;;;;;;5.10;4.60;;;15.70;99.90;;;16.59;100.00;98601.91;5000011;28;20526;-88
2021/06/04 04:23:07;;;;;;;6.70;4.67;;;15.90;99.90;;;16.61;100.00;98599.84;5000400;28;20542;-85
2021/06/04 04:25:39;;;;;;;8.17;5.20;;;15.90;99.90;;;16.66;100.00;98599.22;5000394;28;20487;-79
2021/06/04 04:28:12;;;;;;;6.27;5.00;;;16.00;99.90;;;16.69;100.00;98596.16;4994298;28;20462;-79
2021/06/04 04:30:41;;;;;;;7.00;4.57;;;16.00;99.90;;;16.69;100.00;98590.88;5002980;28;20467;-79
2021/06/04 04:33:11;;;;;;;4.97;4.03;;;15.90;99.90;;;16.71;100.00;98586.19;4998643;28;20459;-86
2021/06/04 04:35:40;;;;;;;5.47;4.43;;;16.00;99.90;;;16.73;100.00;98586.81;4998896;28;20829;-80
2021/06/04 04:38:09;;;;;;;6.60;4.50;;;16.00;99.90;;;16.74;100.00;98591.03;5003706;28;20455;-79
2021/06/04 04:40:40;;;;;;;4.80;4.30;;;16.00;99.90;;;16.70;100.00;98588.00;5000655;28;20454;-80
2021/06/04 04:43:09;;;;;;;6.37;4.00;;;15.90;99.90;;;16.72;100.00;98591.28;4991857;28;20484;-80
2021/06/04 04:45:38;;;;;;;6.20;4.30;;;15.90;99.90;;;16.67;100.00;98584.97;5005967;28;20522;-80
2021/06/04 04:48:09;;;;;;;4.50;4.10;;;15.80;99.90;;;16.70;100.00;98579.28;4990800;28;20926;-80
2021/06/04 04:50:38;;;;;;;4.33;3.67;;;15.90;99.90;;;16.76;100.00;98581.09;4992644;28;20455;-80
2021/06/04 04:53:06;;;;;;;5.07;4.57;;;15.90;99.90;;;16.75;100.00;98582.09;4997361;28;21014;-80
2021/06/04 04:55:40;;;;;;;4.40;3.67;;;15.90;99.90;;;16.71;100.00;98589.63;5002897;28;20447;-80
2021/06/04 04:58:09;;;;;;;9.03;3.60;;;15.80;99.90;;;16.78;100.00;98595.69;5000580;28;20451;-80
2021/06/04 05:00:40;;;;;;;6.33;4.67;;;16.00;99.90;;;16.80;100.00;98590.22;4996229;28;20509;-80
2021/06/04 05:03:12;;;;;;;15.80;5.00;;;16.00;99.90;;;16.82;100.00;98588.16;5006023;28;20522;-80
2021/06/04 05:05:41;;;;;;;4.30;3.80;;;16.00;99.90;;;16.81;100.00;98587.34;5002653;28;20534;-81
2021/06/04 05:08:09;;;;;;;5.50;3.90;;;16.00;99.90;;;16.83;100.00;98585.31;5005513;28;20520;-79
2021/06/04 05:10:37;;;;;;;5.93;3.90;;;16.10;99.90;;;16.87;100.00;98591.75;4996579;28;20514;-80
2021/06/04 05:13:08;;;;;;;4.93;4.10;;;16.10;99.90;;;16.89;100.00;98594.19;5000471;28;20487;-79
2021/06/04 05:15:39;;;;;;;4.50;3.30;;;16.10;99.90;;;16.80;100.00;98590.22;5004661;28;20509;-80
2021/06/04 05:18:13;;;;;;;5.63;3.50;;;16.00;99.90;;;16.83;100.00;98595.06;5006539;28;20800;-80
2021/06/04 05:20:44;;;;;;;4.60;3.70;;;16.00;99.90;;;16.90;100.00;98599.25;5006672;28;20463;-80
2021/06/04 05:23:15;;;;;;;3.93;3.47;;;16.20;99.90;;;16.96;100.00;98602.91;4999768;28;21010;-80
2021/06/04 05:25:46;;;;;;;4.90;3.73;;;16.20;99.90;;;17.01;100.00;98616.25;5003027;28;20557;-80
2021/06/04 05:28:19;;;;;;;147.57;75.00;;;16.30;99.90;;;17.07;100.00;98628.63;5002970;28;20466;-80
2021/06/04 05:30:50;;;;;;;8.20;6.67;;;16.30;99.90;;;17.11;100.00;98621.91;5005220;28;20483;-80
2021/06/04 05:33:24;;;;;;;3.90;3.57;;;16.30;99.90;;;17.18;100.00;98625.28;5004594;28;20805;-80
2021/06/04 05:35:53;;;;;;;6.33;3.30;;;16.40;99.90;;;17.18;100.00;98620.00;4996884;28;20595;-80
2021/06/04 05:38:21;;;;;;;4.67;4.20;;;16.50;99.90;;;17.20;100.00;98625.09;4995800;28;20452;-80
2021/06/04 05:40:51;;;;;;;4.13;3.80;;;16.50;99.90;;;17.15;100.00;98619.66;5010532;28;20937;-80
2021/06/04 05:43:24;;;;;;;4.73;3.70;;;16.40;99.90;;;17.17;100.00;98626.31;5004217;28;20838;-80
2021/06/04 05:45:52;;;;;;;6.30;3.40;;;16.40;99.90;;;17.19;100.00;98618.97;5010525;28;20575;-80
2021/06/04 05:48:23;;;;;;;4.40;3.60;;;16.50;99.90;;;17.20;100.00;98623.25;5005954;28;20464;-80
2021/06/04 05:50:55;;;;;;;3.80;3.40;;;16.40;99.90;;;17.27;100.00;98625.84;5001485;28;20521;-80
2021/06/04 05:53:28;;;;;;;4.00;3.23;;;16.50;99.90;;;17.36;100.00;98622.72;5005297;28;20529;-81
2021/06/04 05:55:59;;;;;;;5.07;3.10;;;16.50;99.90;;;17.41;100.00;98622.88;4997602;28;20965;-80
2021/06/04 05:58:29;;;;;;;3.63;3.20;;;16.60;99.90;;;17.41;100.00;98624.72;5004522;28;20447;-81
2021/06/04 06:01:00;;;;;;;10.17;3.20;;;16.60;99.90;;;17.51;100.00;98617.09;5002626;28;20871;-80
2021/06/04 06:03:35;;;;;;;5.90;4.37;;;16.70;99.90;;;17.52;100.00;98619.53;5008397;28;20440;-81
2021/06/04 06:06:04;;;;;;;3.50;3.20;;;16.70;99.90;;;17.50;100.00;98613.63;5001791;28;20528;-80
2021/06/04 06:08:33;;;;;;;3.60;3.30;;;16.70;99.90;;;17.63;100.00;98625.16;5008822;28;20451;-80
2021/06/04 06:11:01;;;;;;;6.40;3.87;;;16.80;99.90;;;17.71;100.00;98622.22;5003134;28;20474;-78
2021/06/04 06:13:29;;;;;;;10.30;3.30;;;17.00;99.90;;;17.79;100.00;98619.31;5006223;28;20474;-81
2021/06/04 06:15:58;;;;;;;5.23;3.70;;;17.00;99.90;;;17.87;100.00;98616.38;5001503;28;20506;-81
2021/06/04 06:18:26;;;;;;;11.23;4.00;;;17.10;99.90;;;17.91;100.00;98621.00;4999603;28;20838;-81
2021/06/04 06:20:56;;;;;;;9.20;3.30;;;17.10;99.90;;;18.02;100.00;98633.50;5000151;28;20448;-81
2021/06/04 06:23:32;;;;;;;6.43;3.30;;;17.20;99.90;;;18.09;100.00;98625.50;4997974;28;20955;-81
2021/06/04 06:26:05;;;;;;;5.07;4.10;;;17.30;99.90;;;18.05;100.00;98624.31;4999746;28;20526;-81
2021/06/04 06:28:38;;;;;;;4.90;3.10;;;17.20;99.90;;;18.15;100.00;98626.47;4994056;28;20439;-80
2021/06/04 06:31:14;;;;;;;3.90;3.23;;;17.40;99.90;;;18.24;100.00;98630.44;5001855;28;20463;-82
2021/06/04 06:33:42;;;;;;;3.70;3.30;;;17.50;99.90;;;18.28;100.00;98627.13;4998555;28;20974;-81
2021/06/04 06:36:19;;;;;;;16.03;3.63;;;17.60;99.90;;;18.37;100.00;98625.78;5000888;28;20451;-81
2021/06/04 06:38:49;;;;;;;3.37;3.07;;;17.70;99.90;;;18.45;100.00;98619.38;5005680;28;20497;-80
2021/06/04 06:41:17;;;;;;;9.13;3.30;;;17.80;99.90;;;18.54;100.00;98629.47;4996243;28;20526;-80
2021/06/04 06:43:47;;;;;;;3.87;3.30;;;17.80;99.90;;;18.59;100.00;98626.16;5003968;28;20478;-80
2021/06/04 06:46:17;;;;;;;4.77;3.47;;;17.90;99.90;;;18.66;100.00;98626.06;5000829;28;20550;-80
2021/06/04 06:48:47;;;;;;;4.10;3.53;;;17.90;99.90;;;18.70;100.00;98628.06;4991469;28;21255;-80
2021/06/04 06:51:18;;;;;;;5.97;3.87;;;18.00;99.90;;;18.75;100.00;98635.31;4997605;28;20456;-80
2021/06/04 06:59:04;;;;;;;9.83;5.83;;;18.10;99.90;;;18.88;100.00;98622.69;5163374;23;20506;-81
2021/06/04 07:01:32;;;;;;;5.17;3.40;;;18.20;99.90;;;18.92;100.00;98628.34;4918051;29;20471;-81
2021/06/04 07:04:01;;;;;;;5.03;3.27;;;18.20;99.90;;;18.97;100.00;98629.28;4926714;29;21032;-81
2021/06/04 07:06:35;;;;;;;3.70;3.30;;;18.30;99.90;;;19.03;100.00;98632.88;4907244;29;20503;-80
2021/06/04 07:09:06;;;;;;;6.70;3.13;;;18.40;99.90;;;19.07;100.00;98634.03;4911887;29;20494;-81
2021/06/04 07:11:42;;;;;;;8.60;3.70;;;18.50;99.90;;;19.11;100.00;98632.56;4909507;29;20467;-81
2021/06/04 07:14:11;;;;;;;3.77;3.37;;;18.50;99.90;;;19.18;100.00;98638.56;4902394;29;20468;-82
2021/06/04 07:16:40;;;;;;;4.13;3.60;;;18.60;99.90;;;19.23;100.00;98632.59;4906917;29;20511;-81
2021/06/04 07:19:08;;;;;;;3.93;3.33;;;18.60;99.90;;;19.27;100.00;98628.41;4908062;29;20473;-81
2021/06/04 07:21:40;;;;;;;4.53;3.80;;;18.70;99.90;;;19.30;100.00;98631.44;4916897;29;20778;-81
2021/06/04 07:24:13;;;;;;;5.50;3.57;;;18.70;99.90;;;19.35;100.00;98626.25;4912360;29;20923;-81
2021/06/04 07:26:44;;;;;;;4.83;4.10;;;18.70;99.90;;;19.41;100.00;98635.97;4911332;29;21010;-83
2021/06/04 07:29:13;;;;;;;5.27;3.20;;;18.70;99.90;;;19.47;100.00;98634.28;4912271;29;20503;-81
2021/06/04 07:31:42;;;;;;;7.33;3.50;;;18.80;99.90;;;19.52;100.00;98637.84;4910066;29;20475;-81
2021/06/04 07:34:13;;;;;;;5.83;4.10;;;19.00;99.90;;;19.61;100.00;98632.19;4911537;29;20842;-81
2021/06/04 07:36:47;;;;;;;3.93;3.10;;;19.10;99.90;;;19.68;100.00;98636.34;4902435;29;20470;-82
2021/06/04 07:39:21;;;;;;;3.83;3.30;;;19.10;99.90;;;19.72;100.00;98640.16;4913326;29;20463;-81
2021/06/04 07:41:50;;;;;;;6.30;3.80;;;19.20;99.90;;;19.79;100.00;98632.06;4911985;29;20471;-81
2021/06/04 07:44:19;;;;;;;6.73;4.33;;;19.20;99.90;;;19.85;100.00;98636.47;4906284;29;20494;-81
2021/06/04 07:46:51;;;;;;;6.07;3.60;;;19.30;99.90;;;19.90;100.00;98639.22;4918220;29;20509;-81
2021/06/04 07:49:20;;;;;;;6.27;3.60;;;19.30;99.90;;;19.93;100.00;98636.91;4909719;29;20555;-81
2021/06/04 07:51:55;;;;;;;5.23;3.07;;;19.30;99.90;;;19.98;100.00;98633.56;4908816;29;20531;-81
2021/06/04 07:54:26;;;;;;;6.67;4.37;;;19.30;99.90;;;20.03;100.00;98638.97;4910534;29;20463;-80
2021/06/04 07:56:55;;;;;;;11.23;4.30;;;19.40;99.90;;;20.04;100.00;98629.97;4909769;29;20527;-81
2021/06/04 07:59:24;;;;;;;4.60;3.67;;;19.30;99.90;;;20.07;100.00;98635.63;4907718;29;21011;-82
2021/06/04 08:01:53;;;;;;;8.43;3.83;;;19.40;99.90;;;20.12;100.00;98642.09;4910916;29;20490;-81
2021/06/04 08:04:22;;;;;;;3.83;3.43;;;19.50;99.90;;;20.18;100.00;98638.50;4907881;29;21073;-80
2021/06/04 08:06:52;;;;;;;5.00;3.40;;;19.60;99.90;;;20.23;100.00;98628.81;4914188;29;20507;-82
2021/06/04 08:09:20;;;;;;;21.90;14.50;;;19.60;99.90;;;20.30;100.00;98632.16;4911329;29;20464;-81
2021/06/04 08:11:56;;;;;;;4.27;3.63;;;19.70;99.90;;;20.35;100.00;98634.91;4912702;29;20459;-80
2021/06/04 08:14:31;;;;;;;4.47;2.60;;;19.70;99.90;;;20.39;100.00;98624.63;4913192;29;20494;-80
2021/06/04 08:17:00;;;;;;;3.00;2.70;;;19.70;99.90;;;20.46;100.00;98625.28;4913769;29;20478;-81
2021/06/04 08:19:32;;;;;;;4.83;3.00;;;19.80;99.90;;;20.49;100.00;98620.31;4905380;29;20463;-81
2021/06/04 08:22:06;;;;;;;5.47;3.30;;;19.90;99.90;;;20.52;100.00;98619.84;4915274;29;20558;-81
2021/06/04 08:24:36;;;;;;;7.30;3.80;;;20.00;99.90;;;20.57;100.00;98614.63;4908823;29;20464;-81
2021/06/04 08:27:08;;;;;;;3.73;2.87;;;19.90;99.90;;;20.61;100.00;98616.81;4905505;29;20499;-81
2021/06/04 08:29:37;;;;;;;8.80;3.10;;;20.00;99.90;;;20.66;100.00;98611.56;4911586;29;20522;-81
2021/06/04 08:32:09;;;;;;;4.90;3.30;;;20.10;99.90;;;20.68;100.00;98605.00;4908036;29;20471;-82
2021/06/04 08:34:38;;;;;;;87.83;52.83;;;20.10;99.90;;;20.73;100.00;98615.72;4909075;29;20554;-81
2021/06/04 08:37:08;;;;;;;12.70;8.30;;;20.20;99.90;;;20.76;100.00;98612.56;4914252;29;20471;-81
2021/06/04 08:39:39;;;;;;;7.20;3.37;;;20.20;99.90;;;20.80;100.00;98603.06;4920565;29;20454;-81
2021/06/04 08:42:50;;;;;;;5.90;3.00;;;20.30;99.90;;;20.85;100.00;98608.50;4927794;29;20436;-81
2021/06/04 08:45:40;;;;;;;4.63;2.97;;;20.30;99.90;;;20.91;100.00;98598.75;4907344;29;20490;-81
2021/06/04 08:48:30;;;;;;;7.20;2.60;;;20.40;99.90;;;20.94;100.00;98608.91;4905472;29;20482;-81
2021/06/04 08:51:11;;;;;;;3.30;2.63;;;20.50;99.90;;;21.00;100.00;98603.44;4913320;29;20462;-81
2021/06/04 08:53:59;;;;;;;4.53;3.17;;;20.50;99.90;;;21.06;100.00;98601.69;4915261;29;20503;-81
2021/06/04 08:56:35;;;;;;;9.20;3.00;;;20.60;99.90;;;21.11;100.00;98596.47;4907504;29;20448;-81
2021/06/04 08:59:09;;;;;;;8.10;4.10;;;20.70;99.90;;;21.25;100.00;98594.28;4915506;29;20495;-81
2021/06/04 09:01:46;;;;;;;5.97;3.10;;;20.70;99.90;;;21.31;100.00;98588.81;4923862;29;20490;-82
2021/06/04 09:04:23;;;;;;;6.37;3.47;;;20.80;99.90;;;21.32;100.00;98593.09;4914013;29;20825;-81
2021/06/04 09:07:00;;;;;;;6.87;2.90;;;20.80;99.90;;;21.36;100.00;98599.53;4921017;29;20507;-82
2021/06/04 09:09:37;;;;;;;12.30;3.03;;;20.80;99.90;;;21.37;100.00;98595.03;4925275;29;20742;-81
2021/06/04 09:12:14;;;;;;;4.50;2.73;;;20.90;99.90;;;21.37;100.00;98590.50;4923767;29;20466;-80
2021/06/04 09:14:42;;;;;;;4.53;3.07;;;20.80;99.90;;;21.39;100.00;98593.72;4919637;29;20463;-81
2021/06/04 09:17:23;;;;;;;4.33;3.23;;;20.90;99.90;;;21.39;100.00;98599.06;4910264;29;20822;-81
2021/06/04 09:20:04;;;;;;;12.63;2.73;;;20.80;99.90;;;21.39;100.00;98598.25;4916380;29;20478;-82
2021/06/04 09:22:38;;;;;;;7.50;2.70;;;20.80;99.90;;;21.39;100.00;98588.41;4909655;29;20522;-82
2021/06/04 09:25:13;;;;;;;4.43;3.03;;;20.80;99.90;;;21.44;100.00;98591.16;4911781;29;20964;-82
2021/06/04 09:27:46;;;;;;;6.37;3.37;;;20.80;99.90;;;21.53;100.00;98587.03;4911346;29;21305;-82
2021/06/04 09:30:26;;;;;;;12.30;9.70;;;20.90;99.90;;;21.62;100.00;98587.44;4911938;29;20515;-84
2021/06/04 09:33:10;;;;;;;7.90;6.20;;;21.10;99.90;;;21.70;100.00;98581.66;4913609;29;20890;-82
2021/06/04 09:35:53;;;;;;;4.20;3.60;;;21.20;99.90;;;21.77;100.00;98582.28;4917769;29;21019;-81
2021/06/04 09:38:33;;;;;;;5.27;3.00;;;21.30;99.90;;;21.88;100.00;98585.91;4916959;29;20463;-83
2021/06/04 09:41:36;;;;;;;5.63;3.20;;;21.40;99.90;;;22.01;100.00;98596.22;4917973;29;20546;-82
2021/06/04 09:44:28;;;;;;;4.47;3.50;;;21.50;99.90;;;22.10;100.00;98580.63;4913442;29;20510;-82
2021/06/04 09:47:05;;;;;;;4.90;3.27;;;21.60;99.90;;;22.24;100.00;98582.69;4917853;29;20499;-83
2021/06/04 09:49:46;;;;;;;4.37;2.90;;;21.80;99.90;;;22.52;100.00;98585.13;4917289;29;20823;-83
2021/06/04 09:52:29;;;;;;;3.47;2.97;;;22.20;99.90;;;22.73;100.00;98577.38;4910646;29;20479;-82
2021/06/04 09:55:26;;;;;;;14.90;8.97;;;22.40;99.90;;;22.95;100.00;98572.75;4910485;29;20523;-83
2021/06/04 09:58:15;;;;;;;6.17;3.07;;;22.60;99.90;;;23.12;100.00;98572.66;4911143;29;20505;-82
2021/06/04 10:00:47;;;;;;;3.73;3.33;;;22.80;99.90;;;23.20;100.00;98562.31;4911615;29;20459;-81
2021/06/04 10:03:29;;;;;;;7.50;3.47;;;22.90;99.90;;;23.24;100.00;98568.75;4910395;29;20467;-85
2021/06/04 10:06:46;;;;;;;3.60;3.20;;;22.90;99.90;;;23.29;100.00;98558.09;4919799;29;20970;-81
2021/06/04 10:09:33;;;;;;;6.90;2.77;;;22.90;99.90;;;23.36;100.00;98553.34;4916223;29;20477;-81
2021/06/04 10:12:15;;;;;;;4.47;3.00;;;23.00;99.90;;;23.42;100.00;98552.34;4919002;29;20460;-81
2021/06/04 10:14:53;;;;;;;3.33;2.90;;;23.00;99.90;;;23.52;100.00;98551.63;4914085;29;20463;-81
2021/06/04 10:17:45;;;;;;;8.10;3.33;;;23.10;99.90;;;23.61;100.00;98557.25;4917873;29;20454;-83
2021/06/04 10:20:42;;;;;;;4.37;2.50;;;23.30;99.90;;;23.74;100.00;98554.16;4913765;29;20458;-80
2021/06/04 10:23:36;;;;;;;9.13;2.23;;;23.40;99.90;;;23.79;96.57;98535.47;4920368;29;20551;-80
2021/06/04 10:26:24;;;;;;;4.03;2.60;;;23.50;99.90;;;23.89;97.63;98535.50;4908101;29;20884;-80
2021/06/04 10:28:55;;;;;;;5.30;3.07;;;23.60;99.90;;;23.98;99.13;98533.97;4916009;29;20451;-81
2021/06/04 10:31:44;;;;;;;6.00;2.80;;;23.70;99.90;;;24.05;100.00;98532.63;4916456;29;20454;-80
2021/06/04 10:34:51;;;;;;;4.57;2.80;;;23.70;99.90;;;24.12;98.26;98529.72;4915714;29;20451;-81
2021/06/04 10:37:26;;;;;;;5.60;2.90;;;23.80;99.90;;;24.19;97.47;98529.53;4909329;29;20456;-81
2021/06/04 10:40:06;;;;;;;4.83;2.73;;;23.80;99.90;;;24.23;97.45;98519.88;4905057;29;20796;-81
2021/06/04 10:42:51;;;;;;;11.43;8.40;;;23.80;99.90;;;24.29;95.92;98519.66;4914460;29;20515;-82
2021/06/04 10:45:29;;;;;;;3.60;2.70;;;23.90;99.90;;;24.33;94.51;98520.72;4926555;29;21253;-80
2021/06/04 10:48:30;;;;;;;7.73;2.90;;;23.90;99.90;;;24.37;93.02;98521.78;4926276;29;20903;-81